Plainville, Illinois
Current Conditions -  °F | °C
As of 10:54 AM on Thursday 30 Oct 2014 (Local Time) from KUIN Reporting Station
Overcast Overcast  
Wind Chill: 43°   Ceiling: 7500
Heat Index: 48°   Visibility: 10mi
Dew Point: 39°   Wind: 10mph
Humidity: 71%   Direction: 170°S
Pressure: 30.07"   Gusts: NA
Location:  39.79°N, 91.19°W
Report Text: KUIN 301554Z AUTO 17009KT 10SM OVC075 09/04 A3007 RMK AO2 RAE01 SLP185 P0000 T00890039
Loading
Personal Weather Stations






























Interactive Weather Map
Tropical Storm Tracking
New forecast layout! Learn more

10-Day Weather Forecast

Advertisements
Track Severe Weather on mobile